sensor_id;sensor_type;location;lat;lon;timestamp;P1;durP1;ratioP1;P2;durP2;ratioP2
8777;SDS011;4425;50.872;4.712;2023-03-23T00:03:53;4.40;;;4.00;;
8777;SDS011;4425;50.872;4.712;2023-03-23T00:06:23;4.47;;;4.07;;
8777;SDS011;4425;50.872;4.712;2023-03-23T00:08:53;4.88;;;3.90;;
8777;SDS011;4425;50.872;4.712;2023-03-23T00:11:25;4.30;;;3.90;;
8777;SDS011;4425;50.872;4.712;2023-03-23T00:13:56;5.50;;;4.05;;
8777;SDS011;4425;50.872;4.712;2023-03-23T00:16:29;4.60;;;4.20;;
8777;SDS011;4425;50.872;4.712;2023-03-23T00:18:59;4.40;;;4.00;;
8777;SDS011;4425;50.872;4.712;2023-03-23T00:21:30;4.60;;;4.20;;
8777;SDS011;4425;50.872;4.712;2023-03-23T00:24:02;4.40;;;4.10;;
8777;SDS011;4425;50.872;4.712;2023-03-23T00:26:32;4.37;;;3.97;;
8777;SDS011;4425;50.872;4.712;2023-03-23T00:29:01;4.47;;;4.07;;
8777;SDS011;4425;50.872;4.712;2023-03-23T00:31:33;4.40;;;4.10;;
8777;SDS011;4425;50.872;4.712;2023-03-23T00:34:00;4.20;;;3.90;;
8777;SDS011;4425;50.872;4.712;2023-03-23T00:36:30;4.00;;;3.67;;
8777;SDS011;4425;50.872;4.712;2023-03-23T00:39:00;4.32;;;3.83;;
8777;SDS011;4425;50.872;4.712;2023-03-23T00:41:44;4.38;;;3.92;;
8777;SDS011;4425;50.872;4.712;2023-03-23T00:44:13;4.10;;;3.80;;
8777;SDS011;4425;50.872;4.712;2023-03-23T00:46:46;4.30;;;3.92;;
8777;SDS011;4425;50.872;4.712;2023-03-23T00:51:45;4.07;;;3.78;;
8777;SDS011;4425;50.872;4.712;2023-03-23T00:54:12;4.50;;;4.10;;
8777;SDS011;4425;50.872;4.712;2023-03-23T00:56:40;4.43;;;4.13;;
8777;SDS011;4425;50.872;4.712;2023-03-23T00:59:10;4.90;;;4.40;;
8777;SDS011;4425;50.872;4.712;2023-03-23T01:01:37;4.97;;;4.57;;
8777;SDS011;4425;50.872;4.712;2023-03-23T01:04:06;4.43;;;4.03;;
8777;SDS011;4425;50.872;4.712;2023-03-23T01:06:34;4.70;;;4.22;;
8777;SDS011;4425;50.872;4.712;2023-03-23T01:09:04;4.17;;;3.83;;
8777;SDS011;4425;50.872;4.712;2023-03-23T01:11:33;4.20;;;3.80;;
8777;SDS011;4425;50.872;4.712;2023-03-23T01:14:01;4.35;;;3.95;;
8777;SDS011;4425;50.872;4.712;2023-03-23T01:16:31;4.30;;;3.80;;
8777;SDS011;4425;50.872;4.712;2023-03-23T01:18:59;4.18;;;3.88;;
8777;SDS011;4425;50.872;4.712;2023-03-23T01:21:28;4.45;;;3.65;;
8777;SDS011;4425;50.872;4.712;2023-03-23T01:23:55;3.95;;;3.65;;
8777;SDS011;4425;50.872;4.712;2023-03-23T01:26:24;3.92;;;3.63;;
8777;SDS011;4425;50.872;4.712;2023-03-23T01:28:53;3.83;;;3.53;;
8777;SDS011;4425;50.872;4.712;2023-03-23T01:31:21;4.00;;;3.70;;
8777;SDS011;4425;50.872;4.712;2023-03-23T01:33:50;4.25;;;3.88;;
8777;SDS011;4425;50.872;4.712;2023-03-23T01:36:18;3.95;;;3.65;;
8777;SDS011;4425;50.872;4.712;2023-03-23T01:38:49;4.30;;;4.00;;
8777;SDS011;4425;50.872;4.712;2023-03-23T01:41:18;4.25;;;4.00;;
8777;SDS011;4425;50.872;4.712;2023-03-23T01:43:56;4.37;;;4.07;;
8777;SDS011;4425;50.872;4.712;2023-03-23T01:46:25;4.30;;;4.00;;
8777;SDS011;4425;50.872;4.712;2023-03-23T01:48:54;4.22;;;3.92;;
8777;SDS011;4425;50.872;4.712;2023-03-23T01:51:23;4.47;;;4.07;;
8777;SDS011;4425;50.872;4.712;2023-03-23T01:53:55;4.57;;;4.18;;
8777;SDS011;4425;50.872;4.712;2023-03-23T01:56:26;4.80;;;3.93;;
8777;SDS011;4425;50.872;4.712;2023-03-23T01:58:58;4.32;;;3.92;;
8777;SDS011;4425;50.872;4.712;2023-03-23T02:01:32;4.00;;;3.70;;
8777;SDS011;4425;50.872;4.712;2023-03-23T02:04:05;4.00;;;3.70;;
8777;SDS011;4425;50.872;4.712;2023-03-23T02:06:34;4.10;;;3.80;;
8777;SDS011;4425;50.872;4.712;2023-03-23T02:09:02;4.93;;;3.80;;
8777;SDS011;4425;50.872;4.712;2023-03-23T02:11:31;3.92;;;3.63;;
8777;SDS011;4425;50.872;4.712;2023-03-23T02:13:58;3.88;;;3.50;;
8777;SDS011;4425;50.872;4.712;2023-03-23T02:16:29;4.10;;;3.80;;
8777;SDS011;4425;50.872;4.712;2023-03-23T02:19:10;4.18;;;3.78;;
8777;SDS011;4425;50.872;4.712;2023-03-23T02:22:07;4.68;;;3.75;;
8777;SDS011;4425;50.872;4.712;2023-03-23T02:27:49;3.80;;;3.50;;
8777;SDS011;4425;50.872;4.712;2023-03-23T02:30:33;4.28;;;3.58;;
8777;SDS011;4425;50.872;4.712;2023-03-23T02:36:03;3.97;;;3.67;;
8777;SDS011;4425;50.872;4.712;2023-03-23T02:38:38;3.75;;;3.38;;
8777;SDS011;4425;50.872;4.712;2023-03-23T02:41:16;3.60;;;3.28;;
8777;SDS011;4425;50.872;4.712;2023-03-23T02:43:47;4.03;;;3.47;;
8777;SDS011;4425;50.872;4.712;2023-03-23T02:46:19;5.72;;;3.50;;
8777;SDS011;4425;50.872;4.712;2023-03-23T02:48:51;3.63;;;3.33;;
8777;SDS011;4425;50.872;4.712;2023-03-23T02:51:21;3.50;;;3.20;;
8777;SDS011;4425;50.872;4.712;2023-03-23T02:53:50;4.37;;;3.30;;
8777;SDS011;4425;50.872;4.712;2023-03-23T02:56:20;4.00;;;2.83;;
8777;SDS011;4425;50.872;4.712;2023-03-23T02:58:49;3.13;;;2.83;;
8777;SDS011;4425;50.872;4.712;2023-03-23T03:04:18;4.47;;;3.30;;
8777;SDS011;4425;50.872;4.712;2023-03-23T03:06:51;3.55;;;3.25;;
8777;SDS011;4425;50.872;4.712;2023-03-23T03:09:38;4.88;;;3.20;;
8777;SDS011;4425;50.872;4.712;2023-03-23T03:12:09;3.63;;;3.13;;
8777;SDS011;4425;50.872;4.712;2023-03-23T03:14:44;3.63;;;2.95;;
8777;SDS011;4425;50.872;4.712;2023-03-23T03:17:19;3.65;;;3.05;;
8777;SDS011;4425;50.872;4.712;2023-03-23T03:19:52;3.65;;;3.30;;
8777;SDS011;4425;50.872;4.712;2023-03-23T03:22:23;3.33;;;3.00;;
8777;SDS011;4425;50.872;4.712;2023-03-23T03:24:55;3.40;;;3.10;;
8777;SDS011;4425;50.872;4.712;2023-03-23T03:27:24;4.38;;;3.03;;
8777;SDS011;4425;50.872;4.712;2023-03-23T03:29:54;3.10;;;2.80;;
8777;SDS011;4425;50.872;4.712;2023-03-23T03:32:25;3.15;;;2.85;;
8777;SDS011;4425;50.872;4.712;2023-03-23T03:35:01;4.72;;;2.95;;
8777;SDS011;4425;50.872;4.712;2023-03-23T03:37:32;3.35;;;2.88;;
8777;SDS011;4425;50.872;4.712;2023-03-23T03:40:02;3.73;;;2.87;;
8777;SDS011;4425;50.872;4.712;2023-03-23T03:42:36;3.67;;;3.05;;
8777;SDS011;4425;50.872;4.712;2023-03-23T03:45:04;3.47;;;3.00;;
8777;SDS011;4425;50.872;4.712;2023-03-23T03:47:32;3.13;;;2.83;;
8777;SDS011;4425;50.872;4.712;2023-03-23T03:50:01;3.30;;;3.00;;
8777;SDS011;4425;50.872;4.712;2023-03-23T03:52:28;3.70;;;2.90;;
8777;SDS011;4425;50.872;4.712;2023-03-23T03:54:55;3.28;;;2.97;;
8777;SDS011;4425;50.872;4.712;2023-03-23T03:57:23;6.10;;;3.20;;
8777;SDS011;4425;50.872;4.712;2023-03-23T03:59:51;3.63;;;3.05;;
8777;SDS011;4425;50.872;4.712;2023-03-23T04:02:36;3.57;;;2.90;;
8777;SDS011;4425;50.872;4.712;2023-03-23T04:05:05;5.00;;;2.92;;
8777;SDS011;4425;50.872;4.712;2023-03-23T04:07:34;3.40;;;2.97;;
8777;SDS011;4425;50.872;4.712;2023-03-23T04:10:06;3.80;;;2.92;;
8777;SDS011;4425;50.872;4.712;2023-03-23T04:12:34;5.07;;;2.90;;
8777;SDS011;4425;50.872;4.712;2023-03-23T04:15:05;3.63;;;3.03;;
8777;SDS011;4425;50.872;4.712;2023-03-23T04:20:13;4.10;;;2.83;;
8777;SDS011;4425;50.872;4.712;2023-03-23T04:22:42;3.78;;;2.90;;
8777;SDS011;4425;50.872;4.712;2023-03-23T04:25:10;3.85;;;2.90;;
8777;SDS011;4425;50.872;4.712;2023-03-23T04:27:39;6.18;;;3.17;;
8777;SDS011;4425;50.872;4.712;2023-03-23T04:30:12;5.23;;;2.83;;
8777;SDS011;4425;50.872;4.712;2023-03-23T04:32:46;4.25;;;2.72;;
8777;SDS011;4425;50.872;4.712;2023-03-23T04:35:45;4.55;;;2.83;;
8777;SDS011;4425;50.872;4.712;2023-03-23T04:38:15;7.25;;;3.10;;
8777;SDS011;4425;50.872;4.712;2023-03-23T04:40:59;5.22;;;2.78;;
8777;SDS011;4425;50.872;4.712;2023-03-23T04:43:34;6.63;;;2.78;;
8777;SDS011;4425;50.872;4.712;2023-03-23T04:46:07;5.03;;;2.80;;
8777;SDS011;4425;50.872;4.712;2023-03-23T04:48:42;4.68;;;2.50;;
8777;SDS011;4425;50.872;4.712;2023-03-23T04:51:28;6.63;;;2.60;;
8777;SDS011;4425;50.872;4.712;2023-03-23T04:54:17;4.95;;;2.50;;
8777;SDS011;4425;50.872;4.712;2023-03-23T04:59:36;5.97;;;2.60;;
8777;SDS011;4425;50.872;4.712;2023-03-23T05:02:13;4.38;;;2.40;;
8777;SDS011;4425;50.872;4.712;2023-03-23T05:04:45;5.80;;;2.40;;
8777;SDS011;4425;50.872;4.712;2023-03-23T05:07:32;6.03;;;2.60;;
8777;SDS011;4425;50.872;4.712;2023-03-23T05:10:38;6.32;;;2.30;;
8777;SDS011;4425;50.872;4.712;2023-03-23T05:13:39;5.53;;;2.40;;
8777;SDS011;4425;50.872;4.712;2023-03-23T05:16:13;4.22;;;2.22;;
8777;SDS011;4425;50.872;4.712;2023-03-23T05:18:43;5.28;;;2.33;;
8777;SDS011;4425;50.872;4.712;2023-03-23T05:21:14;4.38;;;2.30;;
8777;SDS011;4425;50.872;4.712;2023-03-23T05:26:52;5.78;;;2.50;;
8777;SDS011;4425;50.872;4.712;2023-03-23T05:29:20;4.27;;;2.60;;
8777;SDS011;4425;50.872;4.712;2023-03-23T05:31:50;3.97;;;2.10;;
8777;SDS011;4425;50.872;4.712;2023-03-23T05:36:49;3.50;;;2.40;;
8777;SDS011;4425;50.872;4.712;2023-03-23T05:39:37;3.50;;;2.30;;
8777;SDS011;4425;50.872;4.712;2023-03-23T05:42:18;5.80;;;3.00;;
8777;SDS011;4425;50.872;4.712;2023-03-23T05:44:52;4.47;;;2.45;;
8777;SDS011;4425;50.872;4.712;2023-03-23T05:47:32;5.13;;;4.60;;
8777;SDS011;4425;50.872;4.712;2023-03-23T05:50:13;6.20;;;3.10;;
8777;SDS011;4425;50.872;4.712;2023-03-23T05:52:42;6.55;;;4.03;;
8777;SDS011;4425;50.872;4.712;2023-03-23T05:55:09;3.58;;;2.40;;
8777;SDS011;4425;50.872;4.712;2023-03-23T05:57:40;5.30;;;3.27;;
8777;SDS011;4425;50.872;4.712;2023-03-23T06:00:08;5.60;;;2.97;;
8777;SDS011;4425;50.872;4.712;2023-03-23T06:02:48;4.40;;;2.40;;
8777;SDS011;4425;50.872;4.712;2023-03-23T06:05:19;4.78;;;2.45;;
8777;SDS011;4425;50.872;4.712;2023-03-23T06:07:47;3.38;;;2.20;;
8777;SDS011;4425;50.872;4.712;2023-03-23T06:10:17;3.95;;;2.25;;
8777;SDS011;4425;50.872;4.712;2023-03-23T06:12:55;4.80;;;2.20;;
8777;SDS011;4425;50.872;4.712;2023-03-23T06:15:24;4.65;;;2.42;;
8777;SDS011;4425;50.872;4.712;2023-03-23T06:17:57;4.97;;;2.30;;
8777;SDS011;4425;50.872;4.712;2023-03-23T06:20:35;3.55;;;2.28;;
8777;SDS011;4425;50.872;4.712;2023-03-23T06:23:02;13.00;;;2.63;;
8777;SDS011;4425;50.872;4.712;2023-03-23T06:25:43;17.73;;;2.83;;
8777;SDS011;4425;50.872;4.712;2023-03-23T06:28:18;4.05;;;2.40;;
8777;SDS011;4425;50.872;4.712;2023-03-23T06:30:46;5.22;;;2.53;;
8777;SDS011;4425;50.872;4.712;2023-03-23T06:33:25;8.50;;;2.85;;
8777;SDS011;4425;50.872;4.712;2023-03-23T06:35:53;6.78;;;2.58;;
8777;SDS011;4425;50.872;4.712;2023-03-23T06:38:30;5.40;;;2.25;;
8777;SDS011;4425;50.872;4.712;2023-03-23T06:41:01;8.43;;;3.03;;
8777;SDS011;4425;50.872;4.712;2023-03-23T06:43:29;6.93;;;2.70;;
8777;SDS011;4425;50.872;4.712;2023-03-23T06:45:59;7.13;;;2.60;;
8777;SDS011;4425;50.872;4.712;2023-03-23T06:48:33;8.75;;;2.80;;
8777;SDS011;4425;50.872;4.712;2023-03-23T06:50:59;6.00;;;2.80;;
8777;SDS011;4425;50.872;4.712;2023-03-23T06:53:28;5.50;;;2.63;;
8777;SDS011;4425;50.872;4.712;2023-03-23T06:56:00;7.57;;;2.72;;
8777;SDS011;4425;50.872;4.712;2023-03-23T07:01:12;4.78;;;2.53;;
8777;SDS011;4425;50.872;4.712;2023-03-23T07:03:41;6.20;;;2.83;;
8777;SDS011;4425;50.872;4.712;2023-03-23T07:06:11;9.93;;;2.45;;
8777;SDS011;4425;50.872;4.712;2023-03-23T07:08:41;6.75;;;2.60;;
8777;SDS011;4425;50.872;4.712;2023-03-23T07:11:30;8.95;;;3.08;;
8777;SDS011;4425;50.872;4.712;2023-03-23T07:14:06;6.15;;;2.70;;
8777;SDS011;4425;50.872;4.712;2023-03-23T07:16:40;7.17;;;2.97;;
8777;SDS011;4425;50.872;4.712;2023-03-23T07:19:21;6.97;;;2.90;;
8777;SDS011;4425;50.872;4.712;2023-03-23T07:21:51;13.95;;;3.75;;
8777;SDS011;4425;50.872;4.712;2023-03-23T07:25:27;11.88;;;3.13;;
8777;SDS011;4425;50.872;4.712;2023-03-23T07:28:32;9.55;;;3.38;;
8777;SDS011;4425;50.872;4.712;2023-03-23T07:40:40;5.13;;;2.70;;
8777;SDS011;4425;50.872;4.712;2023-03-23T07:43:16;3.78;;;1.70;;
8777;SDS011;4425;50.872;4.712;2023-03-23T07:45:46;1.80;;;1.60;;
8777;SDS011;4425;50.872;4.712;2023-03-23T07:48:17;1.38;;;1.27;;
8777;SDS011;4425;50.872;4.712;2023-03-23T07:50:47;2.63;;;1.50;;
8777;SDS011;4425;50.872;4.712;2023-03-23T07:56:06;1.83;;;1.40;;
8777;SDS011;4425;50.872;4.712;2023-03-23T07:58:39;1.92;;;1.42;;
8777;SDS011;4425;50.872;4.712;2023-03-23T08:01:08;2.17;;;1.50;;
8777;SDS011;4425;50.872;4.712;2023-03-23T08:03:34;4.45;;;2.00;;
8777;SDS011;4425;50.872;4.712;2023-03-23T08:06:04;3.00;;;1.90;;
8777;SDS011;4425;50.872;4.712;2023-03-23T08:08:38;6.80;;;2.60;;
8777;SDS011;4425;50.872;4.712;2023-03-23T08:11:06;24.50;;;6.00;;
8777;SDS011;4425;50.872;4.712;2023-03-23T08:13:34;27.85;;;7.05;;
8777;SDS011;4425;50.872;4.712;2023-03-23T08:16:03;12.50;;;3.35;;
8777;SDS011;4425;50.872;4.712;2023-03-23T08:18:39;3.65;;;2.55;;
8777;SDS011;4425;50.872;4.712;2023-03-23T08:21:07;3.53;;;2.40;;
8777;SDS011;4425;50.872;4.712;2023-03-23T08:23:36;2.45;;;2.10;;
8777;SDS011;4425;50.872;4.712;2023-03-23T08:26:10;3.63;;;2.50;;
8777;SDS011;4425;50.872;4.712;2023-03-23T08:28:38;4.32;;;2.20;;
8777;SDS011;4425;50.872;4.712;2023-03-23T08:31:19;3.38;;;2.30;;
8777;SDS011;4425;50.872;4.712;2023-03-23T08:33:47;3.45;;;2.40;;
8777;SDS011;4425;50.872;4.712;2023-03-23T08:36:18;4.07;;;2.33;;
8777;SDS011;4425;50.872;4.712;2023-03-23T08:38:48;3.88;;;2.42;;
8777;SDS011;4425;50.872;4.712;2023-03-23T08:41:16;2.43;;;1.70;;
8777;SDS011;4425;50.872;4.712;2023-03-23T08:43:43;2.10;;;1.70;;
8777;SDS011;4425;50.872;4.712;2023-03-23T08:46:11;3.08;;;1.67;;
8777;SDS011;4425;50.872;4.712;2023-03-23T08:48:39;3.08;;;1.85;;
8777;SDS011;4425;50.872;4.712;2023-03-23T08:51:06;2.40;;;1.90;;
8777;SDS011;4425;50.872;4.712;2023-03-23T08:53:33;2.95;;;1.63;;
8777;SDS011;4425;50.872;4.712;2023-03-23T08:56:05;2.78;;;1.67;;
8777;SDS011;4425;50.872;4.712;2023-03-23T08:58:34;2.38;;;1.50;;
8777;SDS011;4425;50.872;4.712;2023-03-23T09:01:01;3.83;;;1.58;;
8777;SDS011;4425;50.872;4.712;2023-03-23T09:03:28;2.33;;;1.42;;
8777;SDS011;4425;50.872;4.712;2023-03-23T09:05:58;1.90;;;1.60;;
8777;SDS011;4425;50.872;4.712;2023-03-23T09:08:26;3.42;;;1.60;;
8777;SDS011;4425;50.872;4.712;2023-03-23T09:10:58;5.03;;;1.60;;
8777;SDS011;4425;50.872;4.712;2023-03-23T09:13:27;10.88;;;3.17;;
8777;SDS011;4425;50.872;4.712;2023-03-23T09:15:55;9.85;;;2.80;;
8777;SDS011;4425;50.872;4.712;2023-03-23T09:18:24;4.40;;;2.10;;
8777;SDS011;4425;50.872;4.712;2023-03-23T09:20:53;4.22;;;1.77;;
8777;SDS011;4425;50.872;4.712;2023-03-23T09:23:23;8.35;;;2.85;;
8777;SDS011;4425;50.872;4.712;2023-03-23T09:25:50;6.20;;;2.42;;
8777;SDS011;4425;50.872;4.712;2023-03-23T09:28:17;3.45;;;1.90;;
8777;SDS011;4425;50.872;4.712;2023-03-23T09:30:46;16.75;;;4.22;;
8777;SDS011;4425;50.872;4.712;2023-03-23T09:33:14;22.73;;;5.60;;
8777;SDS011;4425;50.872;4.712;2023-03-23T09:35:42;13.95;;;3.75;;
8777;SDS011;4425;50.872;4.712;2023-03-23T09:38:10;3.10;;;2.03;;
8777;SDS011;4425;50.872;4.712;2023-03-23T09:40:40;5.30;;;2.40;;
8777;SDS011;4425;50.872;4.712;2023-03-23T09:43:19;6.38;;;2.65;;
8777;SDS011;4425;50.872;4.712;2023-03-23T09:46:11;13.43;;;4.10;;
8777;SDS011;4425;50.872;4.712;2023-03-23T09:48:50;13.10;;;3.33;;
8777;SDS011;4425;50.872;4.712;2023-03-23T09:51:24;2.83;;;2.20;;
8777;SDS011;4425;50.872;4.712;2023-03-23T09:54:03;3.35;;;1.92;;
8777;SDS011;4425;50.872;4.712;2023-03-23T09:56:35;2.67;;;1.90;;
8777;SDS011;4425;50.872;4.712;2023-03-23T09:59:07;3.25;;;1.92;;
8777;SDS011;4425;50.872;4.712;2023-03-23T10:01:44;2.92;;;1.95;;
8777;SDS011;4425;50.872;4.712;2023-03-23T10:04:27;5.90;;;2.47;;
8777;SDS011;4425;50.872;4.712;2023-03-23T10:07:05;5.53;;;2.28;;
8777;SDS011;4425;50.872;4.712;2023-03-23T10:09:37;4.00;;;1.90;;
8777;SDS011;4425;50.872;4.712;2023-03-23T10:12:09;2.25;;;1.67;;
8777;SDS011;4425;50.872;4.712;2023-03-23T10:14:51;10.33;;;2.60;;
8777;SDS011;4425;50.872;4.712;2023-03-23T10:17:39;4.32;;;2.15;;
8777;SDS011;4425;50.872;4.712;2023-03-23T10:20:19;2.67;;;1.92;;
8777;SDS011;4425;50.872;4.712;2023-03-23T10:22:55;3.03;;;1.80;;
8777;SDS011;4425;50.872;4.712;2023-03-23T10:25:29;3.80;;;3.20;;
8777;SDS011;4425;50.872;4.712;2023-03-23T10:28:01;2.80;;;2.05;;
8777;SDS011;4425;50.872;4.712;2023-03-23T10:30:35;2.58;;;1.90;;
8777;SDS011;4425;50.872;4.712;2023-03-23T10:33:09;2.38;;;2.05;;
8777;SDS011;4425;50.872;4.712;2023-03-23T10:35:43;2.67;;;2.30;;
8777;SDS011;4425;50.872;4.712;2023-03-23T10:38:17;2.78;;;2.20;;
8777;SDS011;4425;50.872;4.712;2023-03-23T10:40:49;3.28;;;2.42;;
8777;SDS011;4425;50.872;4.712;2023-03-23T10:43:20;2.78;;;2.22;;
8777;SDS011;4425;50.872;4.712;2023-03-23T10:45:49;3.00;;;2.75;;
8777;SDS011;4425;50.872;4.712;2023-03-23T10:48:30;2.50;;;2.30;;
8777;SDS011;4425;50.872;4.712;2023-03-23T10:51:04;2.78;;;2.45;;
8777;SDS011;4425;50.872;4.712;2023-03-23T10:53:34;2.80;;;2.30;;
8777;SDS011;4425;50.872;4.712;2023-03-23T10:56:03;3.17;;;2.30;;
8777;SDS011;4425;50.872;4.712;2023-03-23T10:58:45;4.00;;;2.45;;
8777;SDS011;4425;50.872;4.712;2023-03-23T11:01:14;5.18;;;2.80;;
8777;SDS011;4425;50.872;4.712;2023-03-23T11:03:46;3.10;;;2.50;;
8777;SDS011;4425;50.872;4.712;2023-03-23T11:06:19;3.50;;;2.53;;
8777;SDS011;4425;50.872;4.712;2023-03-23T11:08:52;4.90;;;2.60;;
8777;SDS011;4425;50.872;4.712;2023-03-23T11:11:24;3.58;;;2.60;;
8777;SDS011;4425;50.872;4.712;2023-03-23T11:14:24;4.40;;;2.88;;
8777;SDS011;4425;50.872;4.712;2023-03-23T11:20:55;4.05;;;3.20;;
8777;SDS011;4425;50.872;4.712;2023-03-23T11:23:58;5.80;;;4.10;;
8777;SDS011;4425;50.872;4.712;2023-03-23T11:26:40;7.25;;;4.50;;
8777;SDS011;4425;50.872;4.712;2023-03-23T11:29:27;5.10;;;4.40;;
8777;SDS011;4425;50.872;4.712;2023-03-23T11:32:29;5.88;;;4.88;;
8777;SDS011;4425;50.872;4.712;2023-03-23T11:34:58;7.07;;;5.40;;
8777;SDS011;4425;50.872;4.712;2023-03-23T11:37:31;7.43;;;5.60;;
8777;SDS011;4425;50.872;4.712;2023-03-23T11:40:01;10.43;;;6.38;;
8777;SDS011;4425;50.872;4.712;2023-03-23T11:42:42;11.23;;;6.20;;
8777;SDS011;4425;50.872;4.712;2023-03-23T11:45:20;8.45;;;6.18;;
8777;SDS011;4425;50.872;4.712;2023-03-23T11:47:51;7.90;;;5.53;;
8777;SDS011;4425;50.872;4.712;2023-03-23T11:50:28;7.60;;;5.10;;
8777;SDS011;4425;50.872;4.712;2023-03-23T11:53:00;14.55;;;4.82;;
8777;SDS011;4425;50.872;4.712;2023-03-23T11:55:36;8.15;;;3.90;;
8777;SDS011;4425;50.872;4.712;2023-03-23T11:58:18;5.95;;;3.72;;
8777;SDS011;4425;50.872;4.712;2023-03-23T12:00:48;7.88;;;3.60;;
8777;SDS011;4425;50.872;4.712;2023-03-23T12:03:21;9.15;;;3.90;;
8777;SDS011;4425;50.872;4.712;2023-03-23T12:05:52;8.47;;;3.50;;
8777;SDS011;4425;50.872;4.712;2023-03-23T12:08:33;9.55;;;3.20;;
8777;SDS011;4425;50.872;4.712;2023-03-23T12:11:15;9.43;;;3.28;;
8777;SDS011;4425;50.872;4.712;2023-03-23T12:13:52;6.07;;;2.97;;
8777;SDS011;4425;50.872;4.712;2023-03-23T12:16:35;11.48;;;3.55;;
8777;SDS011;4425;50.872;4.712;2023-03-23T12:19:14;5.07;;;3.00;;
8777;SDS011;4425;50.872;4.712;2023-03-23T12:21:50;5.18;;;2.70;;
8777;SDS011;4425;50.872;4.712;2023-03-23T12:24:28;10.60;;;3.25;;
8777;SDS011;4425;50.872;4.712;2023-03-23T12:27:06;4.63;;;2.80;;
8777;SDS011;4425;50.872;4.712;2023-03-23T12:35:49;8.40;;;3.10;;
8777;SDS011;4425;50.872;4.712;2023-03-23T12:38:31;6.55;;;3.00;;
8777;SDS011;4425;50.872;4.712;2023-03-23T12:41:22;7.40;;;3.10;;
8777;SDS011;4425;50.872;4.712;2023-03-23T12:43:56;6.25;;;2.85;;
8777;SDS011;4425;50.872;4.712;2023-03-23T12:46:33;13.43;;;3.40;;
8777;SDS011;4425;50.872;4.712;2023-03-23T12:49:10;24.92;;;4.80;;
8777;SDS011;4425;50.872;4.712;2023-03-23T12:51:42;7.50;;;3.20;;
8777;SDS011;4425;50.872;4.712;2023-03-23T12:54:18;8.98;;;3.20;;
8777;SDS011;4425;50.872;4.712;2023-03-23T12:56:54;6.10;;;3.20;;
8777;SDS011;4425;50.872;4.712;2023-03-23T12:59:32;7.05;;;3.40;;
8777;SDS011;4425;50.872;4.712;2023-03-23T13:02:11;10.30;;;3.80;;
8777;SDS011;4425;50.872;4.712;2023-03-23T13:04:45;10.13;;;4.13;;
8777;SDS011;4425;50.872;4.712;2023-03-23T13:07:19;8.35;;;4.50;;
8777;SDS011;4425;50.872;4.712;2023-03-23T13:09:52;9.48;;;4.30;;
8777;SDS011;4425;50.872;4.712;2023-03-23T13:12:25;9.90;;;4.03;;
8777;SDS011;4425;50.872;4.712;2023-03-23T13:14:56;7.65;;;3.75;;
8777;SDS011;4425;50.872;4.712;2023-03-23T13:17:35;5.73;;;3.50;;
8777;SDS011;4425;50.872;4.712;2023-03-23T13:20:15;10.05;;;3.85;;
8777;SDS011;4425;50.872;4.712;2023-03-23T13:22:58;8.80;;;3.50;;
8777;SDS011;4425;50.872;4.712;2023-03-23T13:25:38;7.75;;;3.90;;
8777;SDS011;4425;50.872;4.712;2023-03-23T13:28:16;11.80;;;3.78;;
8777;SDS011;4425;50.872;4.712;2023-03-23T13:31:01;8.03;;;3.97;;
8777;SDS011;4425;50.872;4.712;2023-03-23T13:33:31;7.78;;;3.78;;
8777;SDS011;4425;50.872;4.712;2023-03-23T13:36:04;7.97;;;4.10;;
8777;SDS011;4425;50.872;4.712;2023-03-23T13:38:36;9.00;;;4.03;;
8777;SDS011;4425;50.872;4.712;2023-03-23T13:41:06;6.82;;;3.55;;
8777;SDS011;4425;50.872;4.712;2023-03-23T13:43:37;8.65;;;3.70;;
8777;SDS011;4425;50.872;4.712;2023-03-23T13:46:22;9.77;;;3.85;;
8777;SDS011;4425;50.872;4.712;2023-03-23T13:49:03;8.35;;;3.85;;
8777;SDS011;4425;50.872;4.712;2023-03-23T13:51:58;8.95;;;3.78;;
8777;SDS011;4425;50.872;4.712;2023-03-23T13:54:46;7.70;;;3.88;;
8777;SDS011;4425;50.872;4.712;2023-03-23T13:57:25;8.60;;;4.30;;
8777;SDS011;4425;50.872;4.712;2023-03-23T14:00:31;8.75;;;4.00;;
8777;SDS011;4425;50.872;4.712;2023-03-23T14:03:02;6.68;;;3.70;;
8777;SDS011;4425;50.872;4.712;2023-03-23T14:05:34;7.78;;;3.78;;
8777;SDS011;4425;50.872;4.712;2023-03-23T14:08:03;8.27;;;4.00;;
8777;SDS011;4425;50.872;4.712;2023-03-23T14:10:41;8.05;;;3.80;;
8777;SDS011;4425;50.872;4.712;2023-03-23T14:13:17;12.02;;;4.38;;
8777;SDS011;4425;50.872;4.712;2023-03-23T14:15:55;11.13;;;3.93;;
8777;SDS011;4425;50.872;4.712;2023-03-23T14:18:26;10.70;;;3.80;;
8777;SDS011;4425;50.872;4.712;2023-03-23T14:20:58;7.22;;;3.40;;
8777;SDS011;4425;50.872;4.712;2023-03-23T14:23:26;7.90;;;3.38;;
8777;SDS011;4425;50.872;4.712;2023-03-23T14:25:54;6.73;;;3.40;;
8777;SDS011;4425;50.872;4.712;2023-03-23T14:28:23;4.85;;;2.85;;
8777;SDS011;4425;50.872;4.712;2023-03-23T14:30:54;6.80;;;3.38;;
8777;SDS011;4425;50.872;4.712;2023-03-23T14:33:22;7.95;;;3.47;;
8777;SDS011;4425;50.872;4.712;2023-03-23T14:35:53;6.87;;;3.27;;
8777;SDS011;4425;50.872;4.712;2023-03-23T14:38:23;7.35;;;3.20;;
8777;SDS011;4425;50.872;4.712;2023-03-23T14:40:53;8.52;;;3.60;;
8777;SDS011;4425;50.872;4.712;2023-03-23T14:43:26;7.28;;;3.65;;
8777;SDS011;4425;50.872;4.712;2023-03-23T14:45:55;8.60;;;3.63;;
8777;SDS011;4425;50.872;4.712;2023-03-23T14:48:25;9.07;;;3.40;;
8777;SDS011;4425;50.872;4.712;2023-03-23T14:50:55;9.27;;;3.58;;
8777;SDS011;4425;50.872;4.712;2023-03-23T14:53:24;7.55;;;3.70;;
8777;SDS011;4425;50.872;4.712;2023-03-23T14:55:59;8.57;;;3.85;;
8777;SDS011;4425;50.872;4.712;2023-03-23T14:58:27;7.78;;;3.70;;
8777;SDS011;4425;50.872;4.712;2023-03-23T15:00:58;10.13;;;4.13;;
8777;SDS011;4425;50.872;4.712;2023-03-23T15:03:31;10.18;;;4.05;;
8777;SDS011;4425;50.872;4.712;2023-03-23T15:06:04;9.52;;;3.70;;
8777;SDS011;4425;50.872;4.712;2023-03-23T15:08:34;8.88;;;3.70;;
8777;SDS011;4425;50.872;4.712;2023-03-23T15:11:04;11.52;;;4.10;;
8777;SDS011;4425;50.872;4.712;2023-03-23T15:13:35;9.45;;;3.50;;
8777;SDS011;4425;50.872;4.712;2023-03-23T15:16:06;9.45;;;3.67;;
8777;SDS011;4425;50.872;4.712;2023-03-23T15:18:40;8.63;;;3.55;;
8777;SDS011;4425;50.872;4.712;2023-03-23T15:21:22;8.20;;;3.33;;
8777;SDS011;4425;50.872;4.712;2023-03-23T15:23:51;8.60;;;3.30;;
8777;SDS011;4425;50.872;4.712;2023-03-23T15:26:22;8.23;;;3.25;;
8777;SDS011;4425;50.872;4.712;2023-03-23T15:31:48;8.32;;;3.38;;
8777;SDS011;4425;50.872;4.712;2023-03-23T15:34:19;8.32;;;3.50;;
8777;SDS011;4425;50.872;4.712;2023-03-23T15:36:52;6.53;;;3.20;;
8777;SDS011;4425;50.872;4.712;2023-03-23T15:39:22;8.10;;;3.50;;
8777;SDS011;4425;50.872;4.712;2023-03-23T15:41:50;7.60;;;3.45;;
8777;SDS011;4425;50.872;4.712;2023-03-23T15:44:23;8.43;;;3.30;;
8777;SDS011;4425;50.872;4.712;2023-03-23T15:47:02;8.13;;;3.40;;
8777;SDS011;4425;50.872;4.712;2023-03-23T15:49:40;8.90;;;3.63;;
8777;SDS011;4425;50.872;4.712;2023-03-23T15:52:09;7.47;;;3.38;;
8777;SDS011;4425;50.872;4.712;2023-03-23T15:54:37;9.25;;;3.72;;
8777;SDS011;4425;50.872;4.712;2023-03-23T15:57:04;7.63;;;3.60;;
8777;SDS011;4425;50.872;4.712;2023-03-23T15:59:32;8.00;;;3.63;;
8777;SDS011;4425;50.872;4.712;2023-03-23T16:02:08;7.38;;;3.63;;
8777;SDS011;4425;50.872;4.712;2023-03-23T16:04:47;7.13;;;3.20;;
8777;SDS011;4425;50.872;4.712;2023-03-23T16:07:14;6.85;;;3.63;;
8777;SDS011;4425;50.872;4.712;2023-03-23T16:09:42;7.82;;;3.45;;
8777;SDS011;4425;50.872;4.712;2023-03-23T16:12:12;7.40;;;3.53;;
8777;SDS011;4425;50.872;4.712;2023-03-23T16:14:40;7.43;;;3.17;;
8777;SDS011;4425;50.872;4.712;2023-03-23T16:17:10;8.77;;;3.70;;
8777;SDS011;4425;50.872;4.712;2023-03-23T16:19:46;8.10;;;3.47;;
8777;SDS011;4425;50.872;4.712;2023-03-23T16:22:14;5.77;;;3.20;;
8777;SDS011;4425;50.872;4.712;2023-03-23T16:24:41;9.13;;;3.40;;
8777;SDS011;4425;50.872;4.712;2023-03-23T16:27:10;9.43;;;3.72;;
8777;SDS011;4425;50.872;4.712;2023-03-23T16:29:38;6.10;;;3.33;;
8777;SDS011;4425;50.872;4.712;2023-03-23T16:32:05;8.57;;;3.30;;
8777;SDS011;4425;50.872;4.712;2023-03-23T16:34:37;9.73;;;3.57;;
8777;SDS011;4425;50.872;4.712;2023-03-23T16:37:04;6.57;;;3.57;;
8777;SDS011;4425;50.872;4.712;2023-03-23T16:39:33;7.72;;;3.60;;
8777;SDS011;4425;50.872;4.712;2023-03-23T16:42:01;9.25;;;3.67;;
8777;SDS011;4425;50.872;4.712;2023-03-23T16:44:28;7.50;;;3.53;;
8777;SDS011;4425;50.872;4.712;2023-03-23T16:46:55;5.63;;;3.20;;